Cutler, Maine
Current Conditions -  °F | °C
As of 3:35 PM on Wednesday 26 Nov 2014 (Local Time) from KBHB Reporting Station
Overcast Overcast  
Wind Chill: 28°   Ceiling: 400
Heat Index: 34°   Visibility: 0.5mi
Dew Point: 34°   Wind: 7mph
Humidity: 100%   Direction: 10°N
Pressure: 30.17"   Gusts: NA
Location:  44.66°N, 67.2°W
Report Text: KBHB 262035Z AUTO 01006KT 1/2SM OVC004 01/01 A3017 RMK AO1 P0004
Loading
Personal Weather Stations






























Interactive Weather Map New forecast layout! Learn more

10-Day Weather Forecast

Advertisements
Track Severe Weather on mobile